Terminal Aerodrome Forecast
Issued by NWS

Current Version | Previous Version | Text Only | Print | Product List | Glossary On
Versions: 1 2 3 4 5 6 7 8 9 10 11 12 13 14 15 16 17 18 19 20 21
000
FTUS46 KSEW 271700
TAFBFI
TAF
KBFI 271736Z 2718/2818 04005KT P6SM SCT025 BKN035 OVC045
      TEMPO 2718/2721 BKN025 OVC035
     FM272100 34009KT P6SM SCT025 BKN035 OVC050
     FM280000 35008KT P6SM OVC050
     FM280300 36007KT P6SM BKN080
     FM280700 02006KT P6SM SCT250=

USA.gov is the U.S. government's official web portal to all federal, state and local government web resources and services.